Time;durP1;ratioP1;P1;durP2;ratioP2;P2;SDS_P1;SDS_P2;PMS_P1;PMS_P2;Temp;Humidity;BMP_temperature;BMP_pressure;BME280_temperature;BME280_humidity;BME280_pressure;Samples;Min_cycle;Max_cycle;Signal;HPM_P1;HPM_P2
2023/07/11 00:01:32;;;;;;;;;;;17.10;99.90;;;;;;5073032;28;20018;-71
2023/07/11 00:03:59;;;;;;;;;;;17.30;99.90;;;;;;5071162;28;19904;-71
2023/07/11 00:06:26;;;;;;;;;;;17.50;99.90;;;;;;5072202;28;19908;-71
2023/07/11 00:08:53;;;;;;;;;;;17.30;99.90;;;;;;5072388;28;19904;-69
2023/07/11 00:11:19;;;;;;;;;;;17.60;99.90;;;;;;5072476;28;19905;-70
2023/07/11 00:13:49;;;;;;;;;;;17.90;99.90;;;;;;5072507;28;20258;-69
2023/07/11 00:16:17;;;;;;;;;;;18.40;99.90;;;;;;5072228;28;19909;-70
2023/07/11 00:18:44;;;;;;;;;;;18.30;99.90;;;;;;5072709;28;24086;-68
2023/07/11 00:21:11;;;;;;;;;;;18.10;99.90;;;;;;5072650;28;19912;-70
2023/07/11 00:23:39;;;;;;;;;;;18.20;99.90;;;;;;5072041;28;25126;-71
2023/07/11 00:26:06;;;;;;;;;;;18.30;99.90;;;;;;5072370;28;19916;-68
2023/07/11 00:28:33;;;;;;;;;;;18.10;99.90;;;;;;5072547;28;20039;-68
2023/07/11 00:31:01;;;;;;;;;;;18.60;99.90;;;;;;5072864;28;24073;-69
2023/07/11 00:33:28;;;;;;;;;;;18.80;99.90;;;;;;5071947;28;24066;-70
2023/07/11 00:35:54;;;;;;;;;;;19.20;99.90;;;;;;5071950;28;19942;-70
2023/07/11 00:38:21;;;;;;;;;;;19.50;99.90;;;;;;5072093;28;25059;-69
2023/07/11 00:40:49;;;;;;;;;;;19.50;99.90;;;;;;5072402;28;19959;-68
2023/07/11 00:43:18;;;;;;;;;;;19.00;99.90;;;;;;5071694;28;19953;-71
2023/07/11 00:46:02;;;;;;;;;;;19.40;99.90;;;;;;5071920;28;20059;-71
2023/07/11 00:48:32;;;;;;;;;;;19.60;99.90;;;;;;5072180;28;19963;-72
2023/07/11 00:50:59;;;;;;;;;;;19.90;96.00;;;;;;5071796;28;20338;-70
2023/07/11 00:53:26;;;;;;;;;;;19.30;94.50;;;;;;5072239;28;19959;-70
2023/07/11 00:55:53;;;;;;;;;;;19.30;99.30;;;;;;5072058;28;24091;-69
2023/07/11 00:58:21;;;;;;;;;;;19.20;98.50;;;;;;5072167;28;19904;-70
2023/07/11 01:00:48;;;;;;;;;;;18.90;98.60;;;;;;5070479;28;25133;-72
2023/07/11 01:03:15;;;;;;;;;;;19.10;99.00;;;;;;5071783;28;24066;-70
2023/07/11 01:05:42;;;;;;;;;;;19.70;98.50;;;;;;5071569;28;20092;-69
2023/07/11 01:08:10;;;;;;;;;;;20.00;98.30;;;;;;5072056;28;19956;-68
2023/07/11 01:10:36;;;;;;;;;;;20.50;97.70;;;;;;5071351;28;20440;-71
2023/07/11 01:13:04;;;;;;;;;;;20.40;94.90;;;;;;5075221;28;19956;-71
2023/07/11 01:15:31;;;;;;;;;;;20.30;93.10;;;;;;5075061;28;20340;-70
2023/07/11 01:17:58;;;;;;;;;;;20.40;92.20;;;;;;5074985;28;25107;-71
2023/07/11 01:20:25;;;;;;;;;;;20.50;90.10;;;;;;5075457;28;25136;-70
2023/07/11 01:22:52;;;;;;;;;;;20.50;87.10;;;;;;5075197;28;25058;-70
2023/07/11 01:25:19;;;;;;;;;;;20.60;88.10;;;;;;5073893;28;25102;-71
2023/07/11 01:27:47;;;;;;;;;;;20.20;86.70;;;;;;5074815;28;19981;-70
2023/07/11 01:30:16;;;;;;;;;;;20.40;86.20;;;;;;5075205;28;19960;-70
2023/07/11 01:32:43;;;;;;;;;;;20.30;83.30;;;;;;5073901;28;20294;-68
2023/07/11 01:35:10;;;;;;;;;;;20.80;85.00;;;;;;5075382;28;20304;-69
2023/07/11 01:37:36;;;;;;;;;;;21.20;81.80;;;;;;5075227;28;25053;-69
2023/07/11 01:40:05;;;;;;;;;;;21.40;78.30;;;;;;5075768;28;19960;-69
2023/07/11 01:42:32;;;;;;;;;;;21.20;75.80;;;;;;5075379;28;19963;-68
2023/07/11 01:44:59;;;;;;;;;;;21.50;74.30;;;;;;5075201;28;25063;-68
2023/07/11 01:47:26;;;;;;;;;;;21.70;73.30;;;;;;5074537;28;19959;-69
2023/07/11 01:49:53;;;;;;;;;;;21.10;74.00;;;;;;5074422;28;19961;-68
2023/07/11 01:52:21;;;;;;;;;;;21.10;75.00;;;;;;5074661;28;19990;-70
2023/07/11 01:54:48;;;;;;;;;;;21.70;71.60;;;;;;5074798;28;25078;-70
2023/07/11 01:57:15;;;;;;;;;;;21.60;70.50;;;;;;5075187;28;19960;-69
2023/07/11 01:59:42;;;;;;;;;;;22.00;69.10;;;;;;5074936;28;25094;-69
2023/07/11 02:02:10;;;;;;;;;;;21.90;64.00;;;;;;5075098;28;20333;-70
2023/07/11 02:04:37;;;;;;;;;;;21.90;67.30;;;;;;5074657;28;19992;-71
2023/07/11 02:07:05;;;;;;;;;;;22.20;63.90;;;;;;5074908;28;20065;-69
2023/07/11 02:09:32;;;;;;;;;;;21.60;66.50;;;;;;5075282;28;25057;-71
2023/07/11 02:11:59;;;;;;;;;;;21.70;67.10;;;;;;5075160;28;19970;-69
2023/07/11 02:14:26;;;;;;;;;;;22.20;65.80;;;;;;5073697;28;20105;-68
2023/07/11 02:16:53;;;;;;;;;;;22.40;64.00;;;;;;5074192;28;25076;-67
2023/07/11 02:19:21;;;;;;;;;;;22.70;62.50;;;;;;5074833;28;20338;-68
2023/07/11 02:21:48;;;;;;;;;;;22.30;60.70;;;;;;5073058;28;20439;-69
2023/07/11 02:24:16;;;;;;;;;;;22.50;62.60;;;;;;5073983;28;20569;-68
2023/07/11 02:26:43;;;;;;;;;;;22.40;61.20;;;;;;5074042;28;25161;-69
2023/07/11 02:29:10;;;;;;;;;;;22.50;60.50;;;;;;5074191;28;20456;-69
2023/07/11 02:31:37;;;;;;;;;;;22.30;59.50;;;;;;5074192;28;25077;-67
2023/07/11 02:34:05;;;;;;;;;;;22.30;60.00;;;;;;5074268;28;25099;-68
2023/07/11 02:36:32;;;;;;;;;;;22.30;58.60;;;;;;5074155;28;25071;-68
2023/07/11 02:38:59;;;;;;;;;;;22.10;58.90;;;;;;5074037;28;20567;-68
2023/07/11 02:41:26;;;;;;;;;;;22.20;58.80;;;;;;5073518;28;20437;-70
2023/07/11 02:43:53;;;;;;;;;;;22.20;59.80;;;;;;5074065;28;20459;-69
2023/07/11 02:46:20;;;;;;;;;;;21.80;62.10;;;;;;5073069;28;20088;-68
2023/07/11 02:48:47;;;;;;;;;;;22.20;59.60;;;;;;5073500;28;20086;-68
2023/07/11 02:51:14;;;;;;;;;;;22.60;61.00;;;;;;5073517;28;20104;-68
2023/07/11 02:53:41;;;;;;;;;;;23.20;57.30;;;;;;5073369;28;20143;-67
2023/07/11 02:56:08;;;;;;;;;;;23.00;57.40;;;;;;5073539;28;20089;-68
2023/07/11 02:58:34;;;;;;;;;;;23.00;55.80;;;;;;5073820;28;20076;-68
2023/07/11 03:01:02;;;;;;;;;;;22.80;54.30;;;;;;5073046;28;20085;-68
2023/07/11 03:03:29;;;;;;;;;;;22.70;57.50;;;;;;5074272;28;20339;-71
2023/07/11 03:05:56;;;;;;;;;;;22.60;56.60;;;;;;5073790;28;20147;-69
2023/07/11 03:08:23;;;;;;;;;;;22.30;54.70;;;;;;5073529;28;19966;-68
2023/07/11 03:10:50;;;;;;;;;;;22.60;56.90;;;;;;5073861;28;25078;-68
2023/07/11 03:13:18;;;;;;;;;;;23.00;53.50;;;;;;5073505;28;20100;-69
2023/07/11 03:15:45;;;;;;;;;;;23.40;52.00;;;;;;5072816;28;20094;-69
2023/07/11 03:18:12;;;;;;;;;;;23.50;51.30;;;;;;5072755;28;20181;-69
2023/07/11 03:20:40;;;;;;;;;;;23.30;51.10;;;;;;5073007;28;20517;-67
2023/07/11 03:23:08;;;;;;;;;;;23.40;48.30;;;;;;5073331;28;20159;-69
2023/07/11 03:25:35;;;;;;;;;;;23.50;47.90;;;;;;5072463;28;20002;-69
2023/07/11 03:31:05;;;;;;;;;;;23.80;47.10;;;;;;5071564;28;20495;-69
2023/07/11 03:33:32;;;;;;;;;;;24.00;43.40;;;;;;5071870;28;20118;-68
2023/07/11 03:35:59;;;;;;;;;;;23.50;43.00;;;;;;5072422;28;20542;-70
2023/07/11 03:38:26;;;;;;;;;;;23.50;45.50;;;;;;5072224;28;20065;-69
2023/07/11 03:40:53;;;;;;;;;;;23.40;44.00;;;;;;5072218;28;20147;-68
2023/07/11 03:43:20;;;;;;;;;;;23.70;44.70;;;;;;5071950;28;20217;-67
2023/07/11 03:45:47;;;;;;;;;;;23.70;41.80;;;;;;5072225;28;20499;-69
2023/07/11 03:48:14;;;;;;;;;;;23.20;41.80;;;;;;5072420;28;20130;-67
2023/07/11 03:50:42;;;;;;;;;;;23.40;41.90;;;;;;5071265;28;20364;-68
2023/07/11 03:53:09;;;;;;;;;;;23.90;38.80;;;;;;5070983;28;20533;-68
2023/07/11 03:55:36;;;;;;;;;;;24.10;38.90;;;;;;5072431;28;20495;-68
2023/07/11 03:58:03;;;;;;;;;;;24.50;42.50;;;;;;5072121;28;20090;-67
2023/07/11 04:00:29;;;;;;;;;;;24.00;39.00;;;;;;5072745;28;20098;-68
2023/07/11 04:02:56;;;;;;;;;;;23.70;39.40;;;;;;5071966;28;20082;-68
2023/07/11 04:05:23;;;;;;;;;;;23.60;39.00;;;;;;5072162;28;20002;-68
2023/07/11 04:07:50;;;;;;;;;;;23.70;39.60;;;;;;5071934;28;19974;-68
2023/07/11 04:10:17;;;;;;;;;;;23.60;38.40;;;;;;5072174;28;20147;-67
2023/07/11 04:12:44;;;;;;;;;;;23.60;39.10;;;;;;5071706;28;19973;-68
2023/07/11 04:15:12;;;;;;;;;;;24.10;38.60;;;;;;5072201;28;19974;-68
2023/07/11 04:17:39;;;;;;;;;;;23.80;38.50;;;;;;5072081;28;20108;-68
2023/07/11 04:20:07;;;;;;;;;;;23.80;37.90;;;;;;5071782;28;20107;-68
2023/07/11 04:22:33;;;;;;;;;;;23.70;36.60;;;;;;5071754;28;20059;-67
2023/07/11 04:25:00;;;;;;;;;;;23.60;34.50;;;;;;5071765;28;20688;-68
2023/07/11 04:27:27;;;;;;;;;;;23.50;34.00;;;;;;5071922;28;20098;-68
2023/07/11 04:29:54;;;;;;;;;;;23.50;33.50;;;;;;5071527;28;20098;-68
2023/07/11 04:32:21;;;;;;;;;;;23.50;33.50;;;;;;5071918;28;20104;-67
2023/07/11 04:34:51;;;;;;;;;;;23.90;35.50;;;;;;5071741;28;20150;-68
2023/07/11 04:37:18;;;;;;;;;;;23.70;31.80;;;;;;5071477;28;20097;-68
2023/07/11 04:39:45;;;;;;;;;;;23.60;34.20;;;;;;5071519;28;20178;-68
2023/07/11 04:42:12;;;;;;;;;;;23.40;33.60;;;;;;5071765;28;20135;-68
2023/07/11 04:44:38;;;;;;;;;;;23.40;32.80;;;;;;5071410;28;20525;-67
2023/07/11 04:47:06;;;;;;;;;;;23.40;33.30;;;;;;5075428;28;19993;-68
2023/07/11 04:49:33;;;;;;;;;;;23.00;32.30;;;;;;5074145;28;20464;-68
2023/07/11 04:52:00;;;;;;;;;;;22.80;31.90;;;;;;5075226;28;20102;-68
2023/07/11 04:54:27;;;;;;;;;;;23.00;32.00;;;;;;5075922;28;19978;-68
2023/07/11 04:56:58;;;;;;;;;;;23.10;30.70;;;;;;5075637;28;20248;-68
2023/07/11 04:59:25;;;;;;;;;;;23.00;31.50;;;;;;5075670;28;20185;-68
2023/07/11 05:01:52;;;;;;;;;;;23.30;31.90;;;;;;5075542;28;20103;-69
2023/07/11 05:04:19;;;;;;;;;;;23.50;31.70;;;;;;5075559;28;20111;-67
2023/07/11 05:06:47;;;;;;;;;;;23.30;31.70;;;;;;5075133;28;20477;-69
2023/07/11 05:09:15;;;;;;;;;;;23.40;32.90;;;;;;5075008;28;20039;-68
2023/07/11 05:11:42;;;;;;;;;;;23.50;33.70;;;;;;5074934;28;20005;-67
2023/07/11 05:14:09;;;;;;;;;;;23.20;31.30;;;;;;5075013;28;19971;-68
2023/07/11 05:16:36;;;;;;;;;;;23.10;30.40;;;;;;5075101;28;20482;-68
2023/07/11 05:19:03;;;;;;;;;;;22.80;31.80;;;;;;5073559;28;20444;-69
2023/07/11 05:21:30;;;;;;;;;;;;;;;;;;5074710;28;20173;-68
2023/07/11 05:23:56;;;;;;;;;;;22.70;31.90;;;;;;5075261;28;19972;-68
2023/07/11 05:26:23;;;;;;;;;;;;;;;;;;5075306;28;20122;-69
2023/07/11 05:28:50;;;;;;;;;;;22.50;30.00;;;;;;5075012;28;20112;-68
2023/07/11 05:31:20;;;;;;;;;;;22.30;31.70;;;;;;5074790;28;20106;-68
2023/07/11 05:33:46;;;;;;;;;;;22.00;31.60;;;;;;5075159;28;20050;-68
2023/07/11 05:36:32;;;;;;;;;;;21.70;32.60;;;;;;5074882;28;20084;-68
2023/07/11 05:39:00;;;;;;;;;;;21.30;32.40;;;;;;5075262;28;20163;-68
2023/07/11 05:41:27;;;;;;;;;;;20.80;34.30;;;;;;5075633;28;20090;-68
2023/07/11 05:43:55;;;;;;;;;;;20.50;35.60;;;;;;5074047;28;20150;-68
2023/07/11 05:46:23;;;;;;;;;;;20.40;37.30;;;;;;5075792;28;20113;-69
2023/07/11 05:48:50;;;;;;;;;;;20.10;40.10;;;;;;5074193;28;20112;-68
2023/07/11 05:51:18;;;;;;;;;;;19.90;41.50;;;;;;5074942;28;20199;-70
2023/07/11 05:53:46;;;;;;;;;;;19.60;41.30;;;;;;5075186;28;20002;-68
2023/07/11 05:56:13;;;;;;;;;;;19.50;44.00;;;;;;5073629;28;20082;-68
2023/07/11 05:58:43;;;;;;;;;;;19.30;45.40;;;;;;5075165;28;20084;-68
2023/07/11 06:01:14;;;;;;;;;;;19.20;44.70;;;;;;5074713;28;25121;-68
2023/07/11 06:03:45;;;;;;;;;;;19.10;46.90;;;;;;5075397;28;20069;-69
2023/07/11 06:06:12;;;;;;;;;;;18.90;49.10;;;;;;5074373;28;20152;-69
2023/07/11 06:08:39;;;;;;;;;;;19.00;48.80;;;;;;5074391;28;24076;-69
2023/07/11 06:11:06;;;;;;;;;;;19.00;50.50;;;;;;5074066;28;20014;-68
2023/07/11 06:13:34;;;;;;;;;;;18.90;50.40;;;;;;5074631;28;20389;-68
2023/07/11 06:16:11;;;;;;;;;;;18.80;51.50;;;;;;5073745;28;19910;-68
2023/07/11 06:18:39;;;;;;;;;;;18.90;50.00;;;;;;5074133;28;19958;-68
2023/07/11 06:21:07;;;;;;;;;;;18.70;52.90;;;;;;5073776;28;25132;-69
2023/07/11 06:23:34;;;;;;;;;;;18.50;54.20;;;;;;5073796;28;20002;-69
2023/07/11 06:26:00;;;;;;;;;;;18.30;57.90;;;;;;5073641;28;19958;-68
2023/07/11 06:28:28;;;;;;;;;;;18.20;60.60;;;;;;5074019;28;19905;-69
2023/07/11 06:30:58;;;;;;;;;;;18.10;63.80;;;;;;5073849;28;19958;-70
2023/07/11 06:33:25;;;;;;;;;;;17.90;63.90;;;;;;5074078;28;24053;-69
2023/07/11 06:35:53;;;;;;;;;;;17.80;68.30;;;;;;5073490;28;24099;-68
2023/07/11 06:38:20;;;;;;;;;;;17.70;69.70;;;;;;5071989;28;24052;-68
2023/07/11 06:40:48;;;;;;;;;;;17.50;73.80;;;;;;5073834;28;20255;-68
2023/07/11 06:43:15;;;;;;;;;;;17.40;76.50;;;;;;5073728;28;20063;-69
2023/07/11 06:45:44;;;;;;;;;;;17.20;83.40;;;;;;5072245;28;20346;-68
2023/07/11 06:48:11;;;;;;;;;;;17.10;87.50;;;;;;5073957;28;19905;-68
2023/07/11 06:50:38;;;;;;;;;;;17.00;90.20;;;;;;5073830;28;19951;-68
2023/07/11 06:53:05;;;;;;;;;;;17.00;90.90;;;;;;5073808;28;24069;-69
2023/07/11 06:55:31;;;;;;;;;;;16.80;94.60;;;;;;5073823;28;24072;-67
2023/07/11 06:57:58;;;;;;;;;;;16.60;99.70;;;;;;5073945;28;19951;-68
2023/07/11 07:00:26;;;;;;;;;;;16.40;99.90;;;;;;5073601;28;24082;-68
2023/07/11 07:02:53;;;;;;;;;;;16.30;99.90;;;;;;5073361;28;19965;-68
2023/07/11 07:05:20;;;;;;;;;;;16.10;99.90;;;;;;5073401;28;19919;-67
2023/07/11 07:07:47;;;;;;;;;;;16.00;99.90;;;;;;5073312;28;24080;-68
2023/07/11 07:10:14;;;;;;;;;;;15.90;99.90;;;;;;5073312;28;19915;-68
2023/07/11 07:12:40;;;;;;;;;;;15.80;99.90;;;;;;5073094;28;19905;-69
2023/07/11 07:15:08;;;;;;;;;;;15.90;99.90;;;;;;5073167;28;19905;-68
2023/07/11 07:17:34;;;;;;;;;;;15.70;99.90;;;;;;5073142;28;24074;-68
2023/07/11 07:20:01;;;;;;;;;;;15.50;99.90;;;;;;5073291;28;20407;-68
2023/07/11 07:22:28;;;;;;;;;;;15.30;99.90;;;;;;5073020;28;19916;-68
2023/07/11 07:24:55;;;;;;;;;;;15.20;99.90;;;;;;5073044;28;24128;-68
2023/07/11 07:27:22;;;;;;;;;;;15.10;99.90;;;;;;5073106;28;25140;-68
2023/07/11 07:29:49;;;;;;;;;;;14.90;99.90;;;;;;5073223;28;24060;-68
2023/07/11 07:32:16;;;;;;;;;;;14.80;99.90;;;;;;5072756;28;19948;-68
2023/07/11 07:34:42;;;;;;;;;;;14.70;99.90;;;;;;5072993;28;19954;-68
2023/07/11 07:37:09;;;;;;;;;;;14.60;99.90;;;;;;5072968;28;19904;-69
2023/07/11 07:39:39;;;;;;;;;;;14.50;99.90;;;;;;5072832;28;24068;-68
2023/07/11 07:42:06;;;;;;;;;;;14.40;99.90;;;;;;5072951;28;24108;-68
2023/07/11 07:44:33;;;;;;;;;;;14.30;99.90;;;;;;5072652;28;19917;-68
2023/07/11 07:47:00;;;;;;;;;;;14.20;99.90;;;;;;5072571;28;19912;-69
2023/07/11 07:49:27;;;;;;;;;;;14.10;99.90;;;;;;5071448;28;19906;-68
2023/07/11 07:51:54;;;;;;;;;;;14.00;99.90;;;;;;5072361;28;19993;-69
2023/07/11 07:54:21;;;;;;;;;;;14.00;99.90;;;;;;5072471;28;19962;-67
2023/07/11 07:56:48;;;;;;;;;;;13.90;99.90;;;;;;5072740;28;24082;-67
2023/07/11 07:59:15;;;;;;;;;;;13.80;99.90;;;;;;5072986;28;20334;-67
2023/07/11 08:01:42;;;;;;;;;;;13.70;99.90;;;;;;5072504;28;24076;-67
2023/07/11 08:04:08;;;;;;;;;;;13.70;99.90;;;;;;5072756;28;20096;-68
2023/07/11 08:06:35;;;;;;;;;;;13.60;99.90;;;;;;5072773;28;19908;-68
2023/07/11 08:09:02;;;;;;;;;;;13.50;99.90;;;;;;5072536;28;24086;-68
2023/07/11 08:11:29;;;;;;;;;;;13.40;99.90;;;;;;5072625;28;19908;-67
2023/07/11 08:13:57;;;;;;;;;;;13.30;99.90;;;;;;5071532;28;19944;-69
2023/07/11 08:16:24;;;;;;;;;;;13.20;99.90;;;;;;5072473;28;19977;-68
2023/07/11 08:18:52;;;;;;;;;;;13.10;99.90;;;;;;5072692;28;19905;-68
2023/07/11 08:21:19;;;;;;;;;;;13.00;99.90;;;;;;5075045;28;19987;-70
2023/07/11 08:23:46;;;;;;;;;;;12.90;99.90;;;;;;5075224;28;25123;-69
2023/07/11 08:26:12;;;;;;;;;;;12.90;99.90;;;;;;5076809;28;19920;-69
2023/07/11 08:28:41;;;;;;;;;;;12.80;99.90;;;;;;5076517;28;24069;-69
2023/07/11 08:31:08;;;;;;;;;;;12.70;99.90;;;;;;5076896;28;19979;-68
2023/07/11 08:33:35;;;;;;;;;;;12.60;99.90;;;;;;5075381;28;19959;-68
2023/07/11 08:36:02;;;;;;;;;;;12.60;99.90;;;;;;5076510;28;19905;-68
2023/07/11 08:38:29;;;;;;;;;;;12.60;99.90;;;;;;5076646;28;24093;-69
2023/07/11 08:40:56;;;;;;;;;;;12.60;99.90;;;;;;5076579;28;20034;-70
2023/07/11 08:43:27;;;;;;;;;;;12.80;99.90;;;;;;5076353;28;24107;-70
2023/07/11 08:45:57;;;;;;;;;;;13.00;99.90;;;;;;5076023;28;20020;-68
2023/07/11 08:48:36;;;;;;;;;;;13.20;99.90;;;;;;5076343;28;20008;-68
2023/07/11 08:51:11;;;;;;;;;;;13.40;99.90;;;;;;5076137;28;19911;-68
2023/07/11 08:53:43;;;;;;;;;;;13.40;99.90;;;;;;5075686;28;19904;-68
2023/07/11 08:56:16;;;;;;;;;;;13.50;99.90;;;;;;5076075;28;19904;-68
2023/07/11 08:58:44;;;;;;;;;;;13.40;99.90;;;;;;5076009;28;19905;-69
2023/07/11 09:01:33;;;;;;;;;;;13.30;99.90;;;;;;5075952;28;24063;-67
2023/07/11 09:04:01;;;;;;;;;;;13.10;99.90;;;;;;5072565;28;19905;-68
2023/07/11 09:06:33;;;;;;;;;;;12.90;99.90;;;;;;5075492;28;20492;-68
2023/07/11 09:08:59;;;;;;;;;;;12.80;99.90;;;;;;5075815;28;19904;-69
2023/07/11 09:11:37;;;;;;;;;;;12.50;99.90;;;;;;5075505;28;20116;-68
2023/07/11 09:14:22;;;;;;;;;;;12.40;99.90;;;;;;5076032;28;19908;-69
2023/07/11 09:16:58;;;;;;;;;;;12.30;99.90;;;;;;5075850;28;24093;-70
2023/07/11 09:19:43;;;;;;;;;;;12.20;99.90;;;;;;5076069;28;24093;-69
2023/07/11 09:22:22;;;;;;;;;;;12.10;99.90;;;;;;5075748;28;25064;-71
2023/07/11 09:24:57;;;;;;;;;;;12.00;99.90;;;;;;5075500;28;25056;-68
2023/07/11 09:27:30;;;;;;;;;;;11.90;99.90;;;;;;5075769;28;20290;-69
2023/07/11 09:29:57;;;;;;;;;;;11.80;99.90;;;;;;5076288;28;19904;-68
2023/07/11 09:32:33;;;;;;;;;;;11.70;99.90;;;;;;5075144;28;19908;-69
2023/07/11 09:35:14;;;;;;;;;;;11.70;99.90;;;;;;5075701;28;19962;-70
2023/07/11 09:37:43;;;;;;;;;;;11.60;99.90;;;;;;5075785;28;19911;-67
2023/07/11 09:40:14;;;;;;;;;;;11.60;99.90;;;;;;5075438;28;20313;-68
2023/07/11 09:42:48;;;;;;;;;;;11.60;99.90;;;;;;5075711;28;19958;-68
2023/07/11 09:45:16;;;;;;;;;;;11.50;99.90;;;;;;5075505;28;19919;-69
2023/07/11 09:47:46;;;;;;;;;;;11.40;99.90;;;;;;5075758;28;19904;-68
2023/07/11 09:50:27;;;;;;;;;;;11.30;99.90;;;;;;5073646;28;24077;-69
2023/07/11 09:52:56;;;;;;;;;;;11.30;99.90;;;;;;5075334;28;19909;-67
2023/07/11 09:55:24;;;;;;;;;;;11.20;99.90;;;;;;5075943;28;24075;-68
2023/07/11 09:57:51;;;;;;;;;;;11.10;99.90;;;;;;5075360;28;19966;-70
2023/07/11 10:00:18;;;;;;;;;;;11.10;99.90;;;;;;5073781;28;19909;-73
2023/07/11 10:02:46;;;;;;;;;;;11.10;99.90;;;;;;5075101;28;19950;-69
2023/07/11 10:05:17;;;;;;;;;;;11.00;99.90;;;;;;5074810;28;19912;-69
2023/07/11 10:07:43;;;;;;;;;;;11.00;99.90;;;;;;5074896;28;19947;-70
2023/07/11 10:10:14;;;;;;;;;;;10.90;99.90;;;;;;5074245;28;24100;-68
2023/07/11 10:12:43;;;;;;;;;;;10.80;99.90;;;;;;5074586;28;20003;-69
2023/07/11 10:15:16;;;;;;;;;;;10.80;99.90;;;;;;5073213;28;19911;-70
2023/07/11 10:17:44;;;;;;;;;;;10.80;99.90;;;;;;5073725;28;19912;-67
2023/07/11 10:20:20;;;;;;;;;;;10.70;99.90;;;;;;5074636;28;25111;-70
2023/07/11 10:22:49;;;;;;;;;;;10.60;99.90;;;;;;5074527;28;19963;-68
2023/07/11 10:25:18;;;;;;;;;;;10.50;99.90;;;;;;5074786;28;20266;-68
2023/07/11 10:27:49;;;;;;;;;;;10.50;99.90;;;;;;5074765;28;19904;-68
2023/07/11 10:30:25;;;;;;;;;;;10.50;99.90;;;;;;5074768;28;24078;-69
2023/07/11 10:32:56;;;;;;;;;;;10.50;99.90;;;;;;5074677;28;19930;-70
2023/07/11 10:35:23;;;;;;;;;;;10.40;99.90;;;;;;5074320;28;19913;-69
2023/07/11 10:37:53;;;;;;;;;;;10.30;99.90;;;;;;5074174;28;19911;-68
2023/07/11 10:40:23;;;;;;;;;;;10.30;99.90;;;;;;5074393;28;19923;-68
2023/07/11 10:43:09;;;;;;;;;;;10.30;99.90;;;;;;5074133;28;24115;-67
2023/07/11 10:45:39;;;;;;;;;;;10.20;99.90;;;;;;5074038;28;24120;-69
2023/07/11 10:48:26;;;;;;;;;;;10.10;99.90;;;;;;5074270;28;20266;-68
2023/07/11 10:50:57;;;;;;;;;;;10.10;99.90;;;;;;5074121;28;20009;-68
2023/07/11 10:53:50;;;;;;;;;;;10.10;99.90;;;;;;5072854;28;19951;-68
2023/07/11 10:56:20;;;;;;;;;;;10.10;99.90;;;;;;5073055;28;19904;-69
2023/07/11 10:58:46;;;;;;;;;;;10.00;99.90;;;;;;5072675;28;19905;-70
2023/07/11 11:01:13;;;;;;;;;;;10.00;99.90;;;;;;5074279;28;19909;-67
2023/07/11 11:03:45;;;;;;;;;;;10.00;99.90;;;;;;5074129;28;25123;-69
2023/07/11 11:06:21;;;;;;;;;;;9.90;99.90;;;;;;5074574;28;20296;-69
2023/07/11 11:08:52;;;;;;;;;;;9.80;99.90;;;;;;5074532;28;19958;-69
2023/07/11 11:11:22;;;;;;;;;;;9.80;99.90;;;;;;5073696;28;24100;-69
2023/07/11 11:14:11;;;;;;;;;;;9.80;99.90;;;;;;5073901;28;20351;-67
2023/07/11 11:16:59;;;;;;;;;;;9.70;99.90;;;;;;5073845;28;24072;-73
2023/07/11 11:19:34;;;;;;;;;;;9.70;99.90;;;;;;5072522;28;19911;-69
2023/07/11 11:22:07;;;;;;;;;;;9.70;99.90;;;;;;5073675;28;19916;-68
2023/07/11 11:24:49;;;;;;;;;;;9.60;99.90;;;;;;5073516;28;24108;-68
2023/07/11 11:27:16;;;;;;;;;;;9.60;99.90;;;;;;5073648;28;20355;-68
2023/07/11 11:29:49;;;;;;;;;;;9.60;99.90;;;;;;5072071;28;19904;-68
2023/07/11 11:32:15;;;;;;;;;;;9.60;99.90;;;;;;5073645;28;19910;-70
2023/07/11 11:35:00;;;;;;;;;;;9.50;99.90;;;;;;5073310;28;20473;-67
2023/07/11 11:37:33;;;;;;;;;;;9.50;99.90;;;;;;5073665;28;19943;-68
2023/07/11 11:40:25;;;;;;;;;;;9.60;99.90;;;;;;5073654;28;19936;-68
2023/07/11 11:42:56;;;;;;;;;;;9.50;99.90;;;;;;5072121;28;25126;-68
2023/07/11 11:45:23;;;;;;;;;;;9.50;99.90;;;;;;5073268;28;19912;-71
2023/07/11 11:47:51;;;;;;;;;;;9.40;99.90;;;;;;5073516;28;20024;-71
2023/07/11 11:50:22;;;;;;;;;;;9.40;99.90;;;;;;5073351;28;24078;-69
2023/07/11 11:52:56;;;;;;;;;;;9.30;99.90;;;;;;5072006;28;24071;-68
2023/07/11 11:55:42;;;;;;;;;;;9.30;99.90;;;;;;5073011;28;19904;-69
2023/07/11 11:58:15;;;;;;;;;;;9.30;99.90;;;;;;5073315;28;19912;-70
2023/07/11 12:00:48;;;;;;;;;;;9.30;99.90;;;;;;5073466;28;19912;-70
2023/07/11 12:03:24;;;;;;;;;;;9.20;99.90;;;;;;5073179;28;24086;-69
2023/07/11 12:05:52;;;;;;;;;;;9.10;99.90;;;;;;5073097;28;19913;-70
2023/07/11 12:08:24;;;;;;;;;;;9.00;99.90;;;;;;5073316;28;19905;-68
2023/07/11 12:11:17;;;;;;;;;;;9.00;99.90;;;;;;5073444;28;19904;-71
2023/07/11 12:13:45;;;;;;;;;;;9.00;99.90;;;;;;5071846;28;19909;-71
2023/07/11 12:16:23;;;;;;;;;;;8.90;99.90;;;;;;5073284;28;19912;-69
2023/07/11 12:18:51;;;;;;;;;;;8.80;99.90;;;;;;5073004;28;24114;-67
2023/07/11 12:21:23;;;;;;;;;;;8.80;99.90;;;;;;5073071;28;19911;-67
2023/07/11 12:23:51;;;;;;;;;;;8.70;99.90;;;;;;5073225;28;19923;-69
2023/07/11 12:26:23;;;;;;;;;;;8.70;99.90;;;;;;5073177;28;19927;-71
2023/07/11 12:28:50;;;;;;;;;;;8.60;99.90;;;;;;5071762;28;24160;-67
2023/07/11 12:31:24;;;;;;;;;;;8.60;99.90;;;;;;5072977;28;25125;-67
2023/07/11 12:34:17;;;;;;;;;;;8.60;99.90;;;;;;5073147;28;19911;-68
2023/07/11 12:36:50;;;;;;;;;;;8.60;99.90;;;;;;5071719;28;19908;-68
2023/07/11 12:39:17;;;;;;;;;;;8.50;99.90;;;;;;5073171;28;19911;-69
2023/07/11 12:42:02;;;;;;;;;;;8.60;99.90;;;;;;5072725;28;19931;-67
2023/07/11 12:44:30;;;;;;;;;;;8.60;99.90;;;;;;5072731;28;19911;-68
2023/07/11 12:46:57;;;;;;;;;;;8.60;99.90;;;;;;5073168;28;20266;-69
2023/07/11 12:49:28;;;;;;;;;;;8.60;99.90;;;;;;5071637;28;19908;-69
2023/07/11 12:52:11;;;;;;;;;;;8.50;99.90;;;;;;5071445;28;19970;-69
2023/07/11 12:54:38;;;;;;;;;;;8.50;99.90;;;;;;5072815;28;25141;-69
2023/07/11 12:57:11;;;;;;;;;;;8.40;99.90;;;;;;5073179;28;24083;-68
2023/07/11 12:59:39;;;;;;;;;;;8.40;99.90;;;;;;5072949;28;19911;-69
2023/07/11 13:02:06;;;;;;;;;;;8.40;99.90;;;;;;5072756;28;19989;-69
2023/07/11 13:04:33;;;;;;;;;;;8.40;99.90;;;;;;5072836;28;19904;-68
2023/07/11 13:07:00;;;;;;;;;;;8.40;99.90;;;;;;5073125;28;19928;-68
2023/07/11 13:09:27;;;;;;;;;;;8.30;99.90;;;;;;5077052;28;19904;-67
2023/07/11 13:11:54;;;;;;;;;;;8.30;99.90;;;;;;5076137;28;24073;-67
2023/07/11 13:14:21;;;;;;;;;;;8.20;99.90;;;;;;5075049;28;19904;-68
2023/07/11 13:16:49;;;;;;;;;;;8.10;99.90;;;;;;5076174;28;19983;-68
2023/07/11 13:19:20;;;;;;;;;;;8.10;99.90;;;;;;5076543;28;19911;-68
2023/07/11 13:21:49;;;;;;;;;;;8.10;99.90;;;;;;5076209;28;19969;-68
2023/07/11 13:24:22;;;;;;;;;;;8.10;99.90;;;;;;5076306;28;20247;-68
2023/07/11 13:26:50;;;;;;;;;;;8.00;99.90;;;;;;5076547;28;19959;-68
2023/07/11 13:29:18;;;;;;;;;;;8.00;99.90;;;;;;5076140;28;19911;-67
2023/07/11 13:31:46;;;;;;;;;;;8.00;99.90;;;;;;5076031;28;19904;-68
2023/07/11 13:34:24;;;;;;;;;;;8.00;99.90;;;;;;5074859;28;19905;-68
2023/07/11 13:36:51;;;;;;;;;;;8.00;99.90;;;;;;5076153;28;24126;-68
2023/07/11 13:39:26;;;;;;;;;;;7.90;99.90;;;;;;5075809;28;19904;-67
2023/07/11 13:41:57;;;;;;;;;;;7.90;99.90;;;;;;5076218;28;20407;-67
2023/07/11 13:44:28;;;;;;;;;;;7.80;99.90;;;;;;5074633;28;24115;-68
2023/07/11 13:46:56;;;;;;;;;;;7.80;99.90;;;;;;5076042;28;24048;-67
2023/07/11 13:49:30;;;;;;;;;;;7.80;99.90;;;;;;5075863;28;24141;-67
2023/07/11 13:51:58;;;;;;;;;;;7.80;99.90;;;;;;5075998;28;19905;-66
2023/07/11 13:54:32;;;;;;;;;;;7.70;99.90;;;;;;5075702;28;19908;-68
2023/07/11 13:56:59;;;;;;;;;;;7.70;99.90;;;;;;5075688;28;20328;-68
2023/07/11 13:59:26;;;;;;;;;;;7.70;99.90;;;;;;5076258;28;24087;-68
2023/07/11 14:01:53;;;;;;;;;;;7.70;99.90;;;;;;5075704;28;20436;-68
2023/07/11 14:04:27;;;;;;;;;;;7.60;99.90;;;;;;5075340;28;19911;-67
2023/07/11 14:06:54;;;;;;;;;;;7.60;99.90;;;;;;5074236;28;19914;-69
2023/07/11 14:09:22;;;;;;;;;;;7.50;99.90;;;;;;5074168;28;19905;-68
2023/07/11 14:11:49;;;;;;;;;;;7.50;99.90;;;;;;5073916;28;19911;-68
2023/07/11 14:14:17;;;;;;;;;;;7.50;99.90;;;;;;5075377;28;19951;-68
2023/07/11 14:16:44;;;;;;;;;;;7.50;99.90;;;;;;5075514;28;19996;-67
2023/07/11 14:19:25;;;;;;;;;;;7.40;99.90;;;;;;5075043;28;25117;-68
2023/07/11 14:21:53;;;;;;;;;;;7.40;99.90;;;;;;5075083;28;19924;-69
2023/07/11 14:24:20;;;;;;;;;;;7.40;99.90;;;;;;5074101;28;20380;-68
2023/07/11 14:26:47;;;;;;;;;;;7.30;99.90;;;;;;5075278;28;24067;-68
2023/07/11 14:29:24;;;;;;;;;;;7.30;99.90;;;;;;5075235;28;19904;-68
2023/07/11 14:31:52;;;;;;;;;;;7.30;99.90;;;;;;5075035;28;24064;-68
2023/07/11 14:34:23;;;;;;;;;;;7.20;99.90;;;;;;5074922;28;19911;-67
2023/07/11 14:36:50;;;;;;;;;;;7.10;99.90;;;;;;5073749;28;19904;-68